sensor_id;sensor_type;location;lat;lon;timestamp;pressure;altitude;pressure_sealevel;temperature;humidity
69219;BME280;56232;53.384;-2.732;2023-08-30T00:00:59;100431.69;;;15.00;33.00
69219;BME280;56232;53.384;-2.732;2023-08-30T00:03:25;100434.42;;;14.68;33.03
69219;BME280;56232;53.384;-2.732;2023-08-30T00:05:50;100436.64;;;15.28;33.18
69219;BME280;56232;53.384;-2.732;2023-08-30T00:08:16;100433.98;;;14.76;33.52
69219;BME280;56232;53.384;-2.732;2023-08-30T00:10:41;100431.38;;;15.22;33.26
69219;BME280;56232;53.384;-2.732;2023-08-30T00:13:07;100434.16;;;15.24;32.93
69219;BME280;56232;53.384;-2.732;2023-08-30T00:15:33;100435.28;;;15.25;32.91
69219;BME280;56232;53.384;-2.732;2023-08-30T00:17:58;100434.78;;;14.84;33.09
69219;BME280;56232;53.384;-2.732;2023-08-30T00:20:24;100437.79;;;14.96;33.13
69219;BME280;56232;53.384;-2.732;2023-08-30T00:22:50;100435.65;;;15.01;32.93
69219;BME280;56232;53.384;-2.732;2023-08-30T00:25:15;100439.38;;;16.17;33.22
69219;BME280;56232;53.384;-2.732;2023-08-30T00:27:41;100434.89;;;15.14;33.25
69219;BME280;56232;53.384;-2.732;2023-08-30T00:30:08;100430.80;;;15.20;33.18
69219;BME280;56232;53.384;-2.732;2023-08-30T00:32:32;100424.86;;;15.29;33.06
69219;BME280;56232;53.384;-2.732;2023-08-30T00:34:57;100422.37;;;15.86;33.15
69219;BME280;56232;53.384;-2.732;2023-08-30T00:37:24;100415.85;;;15.36;33.04
69219;BME280;56232;53.384;-2.732;2023-08-30T00:39:49;100415.39;;;15.31;33.21
69219;BME280;56232;53.384;-2.732;2023-08-30T00:42:14;100413.89;;;15.30;32.96
69219;BME280;56232;53.384;-2.732;2023-08-30T00:44:40;100411.43;;;15.80;32.83
69219;BME280;56232;53.384;-2.732;2023-08-30T00:47:06;100412.03;;;15.37;32.71
69219;BME280;56232;53.384;-2.732;2023-08-30T00:49:32;100408.33;;;15.89;32.56
69219;BME280;56232;53.384;-2.732;2023-08-30T00:51:57;100406.68;;;14.90;32.38
69219;BME280;56232;53.384;-2.732;2023-08-30T00:54:23;100404.99;;;15.43;32.22
69219;BME280;56232;53.384;-2.732;2023-08-30T00:56:48;100404.97;;;15.42;32.09
69219;BME280;56232;53.384;-2.732;2023-08-30T00:59:14;100402.91;;;15.89;31.98
69219;BME280;56232;53.384;-2.732;2023-08-30T01:01:40;100404.01;;;15.27;31.92
69219;BME280;56232;53.384;-2.732;2023-08-30T01:04:05;100404.48;;;15.18;31.94
69219;BME280;56232;53.384;-2.732;2023-08-30T01:06:31;100402.58;;;15.12;32.19
69219;BME280;56232;53.384;-2.732;2023-08-30T01:08:56;100406.65;;;15.65;32.37
69219;BME280;56232;53.384;-2.732;2023-08-30T01:11:29;100408.51;;;15.16;32.65
69219;BME280;56232;53.384;-2.732;2023-08-30T01:13:54;100405.86;;;15.08;32.51
69219;BME280;56232;53.384;-2.732;2023-08-30T01:16:13;100406.73;;;15.56;32.70
69219;BME280;56232;53.384;-2.732;2023-08-30T01:18:39;100405.25;;;15.08;32.86
69219;BME280;56232;53.384;-2.732;2023-08-30T01:21:05;100401.60;;;15.53;32.89
69219;BME280;56232;53.384;-2.732;2023-08-30T01:23:40;100398.36;;;15.44;32.91
69219;BME280;56232;53.384;-2.732;2023-08-30T01:26:02;100399.35;;;14.93;32.64
69219;BME280;56232;53.384;-2.732;2023-08-30T01:28:24;100397.25;;;15.44;32.78
69219;BME280;56232;53.384;-2.732;2023-08-30T01:30:48;100393.97;;;16.02;32.45
69219;BME280;56232;53.384;-2.732;2023-08-30T01:33:13;100389.66;;;15.28;32.71
69219;BME280;56232;53.384;-2.732;2023-08-30T01:35:38;100386.49;;;15.24;33.36
69219;BME280;56232;53.384;-2.732;2023-08-30T01:38:04;100380.21;;;15.09;32.96
69219;BME280;56232;53.384;-2.732;2023-08-30T01:40:36;100380.08;;;14.89;33.48
69219;BME280;56232;53.384;-2.732;2023-08-30T01:42:55;100376.59;;;14.69;33.79
69219;BME280;56232;53.384;-2.732;2023-08-30T01:45:22;100372.69;;;13.96;33.74
69219;BME280;56232;53.384;-2.732;2023-08-30T01:47:47;100365.65;;;14.90;33.81
69219;BME280;56232;53.384;-2.732;2023-08-30T01:50:12;100361.95;;;14.77;33.60
69219;BME280;56232;53.384;-2.732;2023-08-30T01:52:38;100362.93;;;14.73;33.89
69219;BME280;56232;53.384;-2.732;2023-08-30T01:55:04;100364.80;;;14.12;34.37
69219;BME280;56232;53.384;-2.732;2023-08-30T01:57:29;100365.73;;;14.74;33.78
69219;BME280;56232;53.384;-2.732;2023-08-30T01:59:54;100367.10;;;14.60;33.73
69219;BME280;56232;53.384;-2.732;2023-08-30T02:02:20;100367.45;;;14.51;33.75
69219;BME280;56232;53.384;-2.732;2023-08-30T02:04:45;100365.46;;;14.40;34.40
69219;BME280;56232;53.384;-2.732;2023-08-30T02:07:15;100360.15;;;14.41;34.19
69219;BME280;56232;53.384;-2.732;2023-08-30T02:09:40;100359.84;;;14.50;34.45
69219;BME280;56232;53.384;-2.732;2023-08-30T02:12:06;100361.42;;;14.48;33.67
69219;BME280;56232;53.384;-2.732;2023-08-30T02:14:28;100363.98;;;14.36;34.10
69219;BME280;56232;53.384;-2.732;2023-08-30T02:16:55;100364.23;;;14.37;34.51
69219;BME280;56232;53.384;-2.732;2023-08-30T02:19:19;100366.21;;;14.46;34.58
69219;BME280;56232;53.384;-2.732;2023-08-30T02:21:45;100371.25;;;14.59;33.45
69219;BME280;56232;53.384;-2.732;2023-08-30T02:24:10;100373.72;;;14.72;33.54
69219;BME280;56232;53.384;-2.732;2023-08-30T02:26:36;100371.27;;;14.91;33.63
69219;BME280;56232;53.384;-2.732;2023-08-30T02:29:01;100371.65;;;15.17;34.24
69219;BME280;56232;53.384;-2.732;2023-08-30T02:31:27;100372.75;;;15.27;33.78
69219;BME280;56232;53.384;-2.732;2023-08-30T02:33:52;100372.02;;;15.09;33.26
69219;BME280;56232;53.384;-2.732;2023-08-30T02:36:18;100374.90;;;15.04;33.42
69219;BME280;56232;53.384;-2.732;2023-08-30T02:38:44;100379.38;;;14.42;33.70
69219;BME280;56232;53.384;-2.732;2023-08-30T02:41:09;100379.31;;;15.12;33.49
69219;BME280;56232;53.384;-2.732;2023-08-30T02:43:35;100380.42;;;15.24;33.32
69219;BME280;56232;53.384;-2.732;2023-08-30T02:46:00;100379.54;;;15.31;33.33
69219;BME280;56232;53.384;-2.732;2023-08-30T02:48:26;100376.91;;;14.71;33.29
69219;BME280;56232;53.384;-2.732;2023-08-30T02:50:51;100376.54;;;14.58;33.70
69219;BME280;56232;53.384;-2.732;2023-08-30T02:53:17;100373.83;;;15.05;33.64
69219;BME280;56232;53.384;-2.732;2023-08-30T02:55:43;100368.21;;;14.28;33.33
69219;BME280;56232;53.384;-2.732;2023-08-30T02:58:08;100365.85;;;14.64;33.67
69219;BME280;56232;53.384;-2.732;2023-08-30T03:00:34;100362.37;;;14.89;33.82
69219;BME280;56232;53.384;-2.732;2023-08-30T03:03:00;100361.29;;;14.72;33.86
69219;BME280;56232;53.384;-2.732;2023-08-30T03:05:26;100362.72;;;14.08;33.75
69219;BME280;56232;53.384;-2.732;2023-08-30T03:07:52;100367.36;;;13.89;33.79
69219;BME280;56232;53.384;-2.732;2023-08-30T03:10:16;100366.29;;;13.77;34.04
69219;BME280;56232;53.384;-2.732;2023-08-30T03:12:42;100361.96;;;14.11;34.05
69219;BME280;56232;53.384;-2.732;2023-08-30T03:15:08;100364.13;;;13.92;34.18
69219;BME280;56232;53.384;-2.732;2023-08-30T03:17:34;100362.94;;;14.48;34.43
69219;BME280;56232;53.384;-2.732;2023-08-30T03:19:59;100364.26;;;14.43;33.88
69219;BME280;56232;53.384;-2.732;2023-08-30T03:22:24;100362.00;;;13.31;34.25
69219;BME280;56232;53.384;-2.732;2023-08-30T03:24:50;100361.38;;;14.45;34.12
69219;BME280;56232;53.384;-2.732;2023-08-30T03:27:16;100359.59;;;13.91;34.19
69219;BME280;56232;53.384;-2.732;2023-08-30T03:29:41;100356.78;;;13.40;34.05
69219;BME280;56232;53.384;-2.732;2023-08-30T03:32:07;100354.80;;;14.58;34.04
69219;BME280;56232;53.384;-2.732;2023-08-30T03:34:33;100353.87;;;14.03;33.78
69219;BME280;56232;53.384;-2.732;2023-08-30T03:36:58;100354.43;;;14.08;33.67
69219;BME280;56232;53.384;-2.732;2023-08-30T03:39:24;100353.53;;;14.63;33.49
69219;BME280;56232;53.384;-2.732;2023-08-30T03:41:49;100352.28;;;13.97;33.70
69219;BME280;56232;53.384;-2.732;2023-08-30T03:44:15;100352.99;;;13.85;33.40
69219;BME280;56232;53.384;-2.732;2023-08-30T03:46:41;100351.96;;;14.36;33.49
69219;BME280;56232;53.384;-2.732;2023-08-30T03:49:06;100350.67;;;13.77;33.61
69219;BME280;56232;53.384;-2.732;2023-08-30T03:51:32;100350.63;;;14.36;33.84
69219;BME280;56232;53.384;-2.732;2023-08-30T03:53:57;100350.13;;;13.68;33.65
69219;BME280;56232;53.384;-2.732;2023-08-30T03:56:24;100347.28;;;14.22;33.84
69219;BME280;56232;53.384;-2.732;2023-08-30T03:58:49;100348.38;;;14.13;33.74
69219;BME280;56232;53.384;-2.732;2023-08-30T04:01:14;100347.16;;;13.50;33.67
69219;BME280;56232;53.384;-2.732;2023-08-30T04:03:40;100347.89;;;13.46;33.56
69219;BME280;56232;53.384;-2.732;2023-08-30T04:06:06;100346.97;;;13.47;33.39
69219;BME280;56232;53.384;-2.732;2023-08-30T04:08:31;100348.27;;;12.97;33.47
69219;BME280;56232;53.384;-2.732;2023-08-30T04:10:57;100346.99;;;14.06;33.54
69219;BME280;56232;53.384;-2.732;2023-08-30T04:13:24;100348.94;;;14.07;33.38
69219;BME280;56232;53.384;-2.732;2023-08-30T04:15:48;100350.67;;;14.08;33.20
69219;BME280;56232;53.384;-2.732;2023-08-30T04:18:14;100350.02;;;14.09;33.44
69219;BME280;56232;53.384;-2.732;2023-08-30T04:20:43;100349.34;;;14.19;33.36
69219;BME280;56232;53.384;-2.732;2023-08-30T04:23:05;100351.30;;;13.64;33.23
69219;BME280;56232;53.384;-2.732;2023-08-30T04:25:34;100353.95;;;13.12;33.16
69219;BME280;56232;53.384;-2.732;2023-08-30T04:27:57;100356.52;;;14.22;33.07
69219;BME280;56232;53.384;-2.732;2023-08-30T04:30:23;100354.72;;;13.70;33.13
69219;BME280;56232;53.384;-2.732;2023-08-30T04:32:48;100352.32;;;14.46;33.27
69219;BME280;56232;53.384;-2.732;2023-08-30T04:35:14;100349.33;;;14.63;33.30
69219;BME280;56232;53.384;-2.732;2023-08-30T04:37:39;100349.21;;;14.69;33.02
69219;BME280;56232;53.384;-2.732;2023-08-30T04:40:06;100344.31;;;14.25;33.44
69219;BME280;56232;53.384;-2.732;2023-08-30T04:42:30;100340.90;;;13.94;33.64
69219;BME280;56232;53.384;-2.732;2023-08-30T04:44:56;100344.15;;;14.70;33.68
69219;BME280;56232;53.384;-2.732;2023-08-30T04:47:23;100346.09;;;14.30;33.70
69219;BME280;56232;53.384;-2.732;2023-08-30T04:49:50;100346.12;;;14.31;33.49
69219;BME280;56232;53.384;-2.732;2023-08-30T04:52:13;100344.13;;;14.23;33.34
69219;BME280;56232;53.384;-2.732;2023-08-30T04:54:38;100343.87;;;14.18;33.23
69219;BME280;56232;53.384;-2.732;2023-08-30T04:57:04;100346.50;;;14.31;33.06
69219;BME280;56232;53.384;-2.732;2023-08-30T04:59:30;100347.34;;;14.44;33.05
69219;BME280;56232;53.384;-2.732;2023-08-30T05:01:55;100348.87;;;14.44;33.09
69219;BME280;56232;53.384;-2.732;2023-08-30T05:04:23;100351.24;;;14.44;32.98
69219;BME280;56232;53.384;-2.732;2023-08-30T05:06:47;100353.68;;;14.41;33.01
69219;BME280;56232;53.384;-2.732;2023-08-30T05:09:12;100351.83;;;14.82;32.73
69219;BME280;56232;53.384;-2.732;2023-08-30T05:11:38;100350.44;;;14.69;33.04
69219;BME280;56232;53.384;-2.732;2023-08-30T05:14:04;100353.78;;;14.13;33.48
69219;BME280;56232;53.384;-2.732;2023-08-30T05:16:30;100355.28;;;14.16;33.53
69219;BME280;56232;53.384;-2.732;2023-08-30T05:18:55;100356.34;;;14.63;33.14
69219;BME280;56232;53.384;-2.732;2023-08-30T05:21:21;100359.85;;;14.55;33.71
69219;BME280;56232;53.384;-2.732;2023-08-30T05:23:46;100364.68;;;14.53;33.63
69219;BME280;56232;53.384;-2.732;2023-08-30T05:26:12;100365.23;;;14.08;33.77
69219;BME280;56232;53.384;-2.732;2023-08-30T05:28:38;100364.64;;;14.13;34.51
69219;BME280;56232;53.384;-2.732;2023-08-30T05:31:03;100362.38;;;14.66;34.49
69219;BME280;56232;53.384;-2.732;2023-08-30T05:33:28;100357.20;;;14.25;34.38
69219;BME280;56232;53.384;-2.732;2023-08-30T05:35:54;100360.92;;;14.34;34.45
69219;BME280;56232;53.384;-2.732;2023-08-30T05:38:19;100362.56;;;14.50;34.27
69219;BME280;56232;53.384;-2.732;2023-08-30T05:40:45;100363.40;;;14.67;34.40
69219;BME280;56232;53.384;-2.732;2023-08-30T05:43:11;100361.86;;;15.00;34.56
69219;BME280;56232;53.384;-2.732;2023-08-30T05:45:37;100362.50;;;15.34;34.79
69219;BME280;56232;53.384;-2.732;2023-08-30T05:48:02;100360.90;;;15.05;34.92
69219;BME280;56232;53.384;-2.732;2023-08-30T05:50:28;100363.96;;;15.95;34.80
69219;BME280;56232;53.384;-2.732;2023-08-30T05:52:53;100362.07;;;14.96;34.54
69219;BME280;56232;53.384;-2.732;2023-08-30T05:55:19;100360.76;;;14.96;34.17
69219;BME280;56232;53.384;-2.732;2023-08-30T05:57:49;100359.82;;;15.50;34.54
69219;BME280;56232;53.384;-2.732;2023-08-30T06:00:11;100361.16;;;16.21;34.69
69219;BME280;56232;53.384;-2.732;2023-08-30T06:02:36;100358.82;;;15.22;34.33
69219;BME280;56232;53.384;-2.732;2023-08-30T06:05:01;100356.08;;;15.80;33.91
69219;BME280;56232;53.384;-2.732;2023-08-30T06:07:27;100352.75;;;16.36;34.21
69219;BME280;56232;53.384;-2.732;2023-08-30T06:09:52;100348.24;;;15.49;34.48
69219;BME280;56232;53.384;-2.732;2023-08-30T06:12:18;100345.64;;;16.29;34.43
69219;BME280;56232;53.384;-2.732;2023-08-30T06:14:43;100341.74;;;16.02;33.10
69219;BME280;56232;53.384;-2.732;2023-08-30T06:17:09;100340.11;;;16.15;33.85
69219;BME280;56232;53.384;-2.732;2023-08-30T06:19:35;100343.61;;;16.39;34.26
69219;BME280;56232;53.384;-2.732;2023-08-30T06:22:00;100344.90;;;16.51;34.07
69219;BME280;56232;53.384;-2.732;2023-08-30T06:24:26;100348.33;;;16.17;34.09
69219;BME280;56232;53.384;-2.732;2023-08-30T06:26:51;100350.20;;;16.26;33.87
69219;BME280;56232;53.384;-2.732;2023-08-30T06:29:17;100353.22;;;16.73;33.31
69219;BME280;56232;53.384;-2.732;2023-08-30T06:31:43;100352.21;;;16.87;31.76
69219;BME280;56232;53.384;-2.732;2023-08-30T06:34:08;100353.93;;;15.78;31.70
69219;BME280;56232;53.384;-2.732;2023-08-30T06:36:34;100351.95;;;16.08;31.98
69219;BME280;56232;53.384;-2.732;2023-08-30T06:38:59;100351.27;;;17.72;31.38
69219;BME280;56232;53.384;-2.732;2023-08-30T06:41:25;100351.04;;;17.38;31.00
69219;BME280;56232;53.384;-2.732;2023-08-30T06:43:50;100351.39;;;18.12;30.91
69219;BME280;56232;53.384;-2.732;2023-08-30T06:46:16;100349.15;;;17.47;31.07
69219;BME280;56232;53.384;-2.732;2023-08-30T06:48:42;100353.27;;;17.32;31.24
69219;BME280;56232;53.384;-2.732;2023-08-30T06:51:07;100356.56;;;17.17;31.14
69219;BME280;56232;53.384;-2.732;2023-08-30T06:53:33;100355.78;;;17.81;31.15
69219;BME280;56232;53.384;-2.732;2023-08-30T06:55:58;100354.51;;;21.60;27.86
69219;BME280;56232;53.384;-2.732;2023-08-30T06:58:24;100347.52;;;22.47;26.97
69219;BME280;56232;53.384;-2.732;2023-08-30T07:00:50;100354.28;;;22.69;26.37
69219;BME280;56232;53.384;-2.732;2023-08-30T07:03:15;100354.84;;;24.88;25.34
69219;BME280;56232;53.384;-2.732;2023-08-30T07:05:40;100358.82;;;24.59;25.19
69219;BME280;56232;53.384;-2.732;2023-08-30T07:08:06;100360.73;;;24.12;24.59
69219;BME280;56232;53.384;-2.732;2023-08-30T07:10:33;100352.37;;;24.84;23.65
69219;BME280;56232;53.384;-2.732;2023-08-30T07:12:57;100355.53;;;24.50;23.35
69219;BME280;56232;53.384;-2.732;2023-08-30T07:15:24;100355.85;;;26.01;23.06
69219;BME280;56232;53.384;-2.732;2023-08-30T07:17:48;100346.86;;;24.63;23.41
69219;BME280;56232;53.384;-2.732;2023-08-30T07:20:14;100343.58;;;24.88;24.16
69219;BME280;56232;53.384;-2.732;2023-08-30T07:22:39;100344.48;;;23.68;24.53
69219;BME280;56232;53.384;-2.732;2023-08-30T07:25:06;100341.73;;;23.97;24.34
69219;BME280;56232;53.384;-2.732;2023-08-30T07:27:30;100348.33;;;22.66;25.02
69219;BME280;56232;53.384;-2.732;2023-08-30T07:29:56;100356.45;;;21.92;25.60
69219;BME280;56232;53.384;-2.732;2023-08-30T07:32:22;100356.30;;;21.29;26.25
69219;BME280;56232;53.384;-2.732;2023-08-30T07:34:46;100357.23;;;21.23;27.10
69219;BME280;56232;53.384;-2.732;2023-08-30T07:37:17;100358.82;;;20.14;27.51
69219;BME280;56232;53.384;-2.732;2023-08-30T07:39:37;100359.41;;;19.57;28.13
69219;BME280;56232;53.384;-2.732;2023-08-30T07:42:03;100354.85;;;20.11;28.45
69219;BME280;56232;53.384;-2.732;2023-08-30T07:44:29;100357.72;;;19.36;28.78
69219;BME280;56232;53.384;-2.732;2023-08-30T07:46:54;100363.73;;;19.04;29.31
69219;BME280;56232;53.384;-2.732;2023-08-30T07:49:19;100362.59;;;18.79;29.61
69219;BME280;56232;53.384;-2.732;2023-08-30T07:51:45;100365.66;;;18.79;29.91
69219;BME280;56232;53.384;-2.732;2023-08-30T07:54:10;100356.93;;;20.26;28.35
69219;BME280;56232;53.384;-2.732;2023-08-30T07:56:36;100364.98;;;20.91;27.61
69219;BME280;56232;53.384;-2.732;2023-08-30T07:59:01;100360.71;;;22.99;26.46
69219;BME280;56232;53.384;-2.732;2023-08-30T08:01:27;100358.24;;;23.84;24.94
69219;BME280;56232;53.384;-2.732;2023-08-30T08:03:52;100358.05;;;25.81;23.71
69219;BME280;56232;53.384;-2.732;2023-08-30T08:06:17;100355.40;;;27.37;22.45
69219;BME280;56232;53.384;-2.732;2023-08-30T08:08:44;100353.40;;;28.31;21.45
69219;BME280;56232;53.384;-2.732;2023-08-30T08:11:08;100346.34;;;29.92;20.14
69219;BME280;56232;53.384;-2.732;2023-08-30T08:13:34;100348.38;;;29.96;19.44
69219;BME280;56232;53.384;-2.732;2023-08-30T08:16:00;100352.31;;;30.59;19.46
69219;BME280;56232;53.384;-2.732;2023-08-30T08:18:25;100345.40;;;29.05;20.35
69219;BME280;56232;53.384;-2.732;2023-08-30T08:20:51;100358.28;;;25.96;22.18
69219;BME280;56232;53.384;-2.732;2023-08-30T08:23:16;100357.96;;;24.40;23.51
69219;BME280;56232;53.384;-2.732;2023-08-30T08:25:41;100365.63;;;22.89;24.72
69219;BME280;56232;53.384;-2.732;2023-08-30T08:28:07;100365.80;;;22.77;25.47
69219;BME280;56232;53.384;-2.732;2023-08-30T08:30:33;100364.18;;;24.85;24.26
69219;BME280;56232;53.384;-2.732;2023-08-30T08:32:58;100364.06;;;25.99;23.26
69219;BME280;56232;53.384;-2.732;2023-08-30T08:35:24;100367.83;;;28.26;21.90
69219;BME280;56232;53.384;-2.732;2023-08-30T08:37:49;100367.78;;;27.71;21.34
69219;BME280;56232;53.384;-2.732;2023-08-30T08:40:15;100370.39;;;27.88;21.57
69219;BME280;56232;53.384;-2.732;2023-08-30T08:42:42;100372.33;;;26.09;22.80
69219;BME280;56232;53.384;-2.732;2023-08-30T08:45:07;100374.86;;;25.43;23.50
69219;BME280;56232;53.384;-2.732;2023-08-30T08:47:31;100382.99;;;24.25;23.79
69219;BME280;56232;53.384;-2.732;2023-08-30T08:49:57;100388.14;;;23.52;25.30
69219;BME280;56232;53.384;-2.732;2023-08-30T08:52:24;100390.84;;;22.06;26.84
69219;BME280;56232;53.384;-2.732;2023-08-30T08:54:48;100393.18;;;20.38;28.02
69219;BME280;56232;53.384;-2.732;2023-08-30T08:57:13;100391.24;;;19.34;28.73
69219;BME280;56232;53.384;-2.732;2023-08-30T08:59:39;100392.96;;;19.71;28.83
69219;BME280;56232;53.384;-2.732;2023-08-30T09:02:05;100396.48;;;20.55;28.55
69219;BME280;56232;53.384;-2.732;2023-08-30T09:04:31;100390.32;;;21.18;28.26
69219;BME280;56232;53.384;-2.732;2023-08-30T09:06:56;100394.16;;;20.43;28.44
69219;BME280;56232;53.384;-2.732;2023-08-30T09:09:22;100393.06;;;21.18;28.54
69219;BME280;56232;53.384;-2.732;2023-08-30T09:11:47;100389.91;;;21.18;28.64
69219;BME280;56232;53.384;-2.732;2023-08-30T09:14:12;100387.27;;;22.06;27.49
69219;BME280;56232;53.384;-2.732;2023-08-30T09:16:38;100381.83;;;22.92;27.18
69219;BME280;56232;53.384;-2.732;2023-08-30T09:19:04;100385.00;;;23.16;26.80
69219;BME280;56232;53.384;-2.732;2023-08-30T09:21:30;100387.24;;;23.63;26.54
69219;BME280;56232;53.384;-2.732;2023-08-30T09:23:59;100392.33;;;22.58;26.90
69219;BME280;56232;53.384;-2.732;2023-08-30T09:26:20;100391.03;;;21.37;27.59
69219;BME280;56232;53.384;-2.732;2023-08-30T09:28:46;100391.31;;;22.49;27.18
69219;BME280;56232;53.384;-2.732;2023-08-30T09:31:16;100385.52;;;23.86;25.93
69219;BME280;56232;53.384;-2.732;2023-08-30T09:33:37;100387.21;;;25.69;24.77
69219;BME280;56232;53.384;-2.732;2023-08-30T09:36:09;100388.25;;;26.02;23.84
69219;BME280;56232;53.384;-2.732;2023-08-30T09:38:28;100381.85;;;27.04;22.75
69219;BME280;56232;53.384;-2.732;2023-08-30T09:43:20;100378.79;;;29.07;22.50
69219;BME280;56232;53.384;-2.732;2023-08-30T09:45:45;100377.75;;;28.86;21.89
69219;BME280;56232;53.384;-2.732;2023-08-30T09:48:10;100381.70;;;28.63;21.87
69219;BME280;56232;53.384;-2.732;2023-08-30T09:50:36;100385.23;;;27.35;22.70
69219;BME280;56232;53.384;-2.732;2023-08-30T09:53:06;100391.43;;;26.30;23.72
69219;BME280;56232;53.384;-2.732;2023-08-30T09:55:27;100397.05;;;25.29;24.01
69219;BME280;56232;53.384;-2.732;2023-08-30T09:57:53;100398.79;;;25.31;24.00
69219;BME280;56232;53.384;-2.732;2023-08-30T10:00:18;100402.11;;;26.22;24.00
69219;BME280;56232;53.384;-2.732;2023-08-30T10:02:43;100405.05;;;26.00;23.78
69219;BME280;56232;53.384;-2.732;2023-08-30T10:05:10;100397.96;;;26.48;23.03
69219;BME280;56232;53.384;-2.732;2023-08-30T10:07:35;100400.04;;;27.21;22.69
69219;BME280;56232;53.384;-2.732;2023-08-30T10:10:00;100395.72;;;27.63;22.65
69219;BME280;56232;53.384;-2.732;2023-08-30T10:12:25;100406.82;;;27.13;22.67
69219;BME280;56232;53.384;-2.732;2023-08-30T10:14:51;100406.53;;;27.09;22.67
69219;BME280;56232;53.384;-2.732;2023-08-30T10:17:18;100401.29;;;26.96;22.60
69219;BME280;56232;53.384;-2.732;2023-08-30T10:19:43;100405.83;;;28.11;22.53
69219;BME280;56232;53.384;-2.732;2023-08-30T10:22:07;100402.11;;;27.52;22.29
69219;BME280;56232;53.384;-2.732;2023-08-30T10:24:38;100404.50;;;26.54;23.04
69219;BME280;56232;53.384;-2.732;2023-08-30T10:27:00;100410.03;;;26.91;22.66
69219;BME280;56232;53.384;-2.732;2023-08-30T10:29:25;100401.74;;;27.53;22.87
69219;BME280;56232;53.384;-2.732;2023-08-30T10:31:49;100404.65;;;27.38;22.48
69219;BME280;56232;53.384;-2.732;2023-08-30T10:34:16;100406.89;;;27.00;23.20
69219;BME280;56232;53.384;-2.732;2023-08-30T10:36:42;100406.26;;;26.01;23.77
69219;BME280;56232;53.384;-2.732;2023-08-30T10:39:11;100407.70;;;25.64;23.75
69219;BME280;56232;53.384;-2.732;2023-08-30T10:41:31;100411.70;;;26.89;23.00
69219;BME280;56232;53.384;-2.732;2023-08-30T10:43:57;100409.23;;;26.17;23.35
69219;BME280;56232;53.384;-2.732;2023-08-30T10:46:29;100412.28;;;26.09;24.02
69219;BME280;56232;53.384;-2.732;2023-08-30T10:48:48;100409.09;;;25.77;24.37
69219;BME280;56232;53.384;-2.732;2023-08-30T10:51:21;100407.11;;;24.74;26.40
69219;BME280;56232;53.384;-2.732;2023-08-30T10:53:39;100414.31;;;23.75;26.07
69219;BME280;56232;53.384;-2.732;2023-08-30T10:56:10;100412.49;;;23.96;26.76
69219;BME280;56232;53.384;-2.732;2023-08-30T10:58:38;100416.96;;;23.56;27.96
69219;BME280;56232;53.384;-2.732;2023-08-30T11:00:56;100413.82;;;23.45;27.17
69219;BME280;56232;53.384;-2.732;2023-08-30T11:03:22;100416.15;;;22.44;27.96
69219;BME280;56232;53.384;-2.732;2023-08-30T11:05:47;100423.26;;;22.72;28.15
69219;BME280;56232;53.384;-2.732;2023-08-30T11:08:13;100425.46;;;23.54;27.82
69219;BME280;56232;53.384;-2.732;2023-08-30T11:10:38;100420.25;;;23.82;27.46
69219;BME280;56232;53.384;-2.732;2023-08-30T11:13:04;100409.54;;;24.39;27.95
69219;BME280;56232;53.384;-2.732;2023-08-30T11:15:29;100415.75;;;24.40;27.64
69219;BME280;56232;53.384;-2.732;2023-08-30T11:18:03;100414.94;;;23.56;27.76
69219;BME280;56232;53.384;-2.732;2023-08-30T11:20:20;100415.94;;;24.34;28.18
69219;BME280;56232;53.384;-2.732;2023-08-30T11:22:47;100420.09;;;23.52;28.92
69219;BME280;56232;53.384;-2.732;2023-08-30T11:25:13;100423.85;;;23.01;28.90
69219;BME280;56232;53.384;-2.732;2023-08-30T11:27:37;100426.98;;;22.70;28.90
69219;BME280;56232;53.384;-2.732;2023-08-30T11:30:04;100419.91;;;22.86;29.24
69219;BME280;56232;53.384;-2.732;2023-08-30T11:32:28;100423.39;;;22.84;28.86
69219;BME280;56232;53.384;-2.732;2023-08-30T11:34:57;100428.74;;;23.01;29.01
69219;BME280;56232;53.384;-2.732;2023-08-30T11:37:19;100437.00;;;22.90;28.99
69219;BME280;56232;53.384;-2.732;2023-08-30T11:39:45;100436.39;;;22.45;29.15
69219;BME280;56232;53.384;-2.732;2023-08-30T11:42:10;100437.67;;;22.92;29.34
69219;BME280;56232;53.384;-2.732;2023-08-30T11:44:36;100433.17;;;23.00;28.78
69219;BME280;56232;53.384;-2.732;2023-08-30T11:47:01;100431.46;;;23.13;28.84
69219;BME280;56232;53.384;-2.732;2023-08-30T11:49:27;100433.97;;;23.56;28.63
69219;BME280;56232;53.384;-2.732;2023-08-30T11:51:52;100441.94;;;24.55;28.60
69219;BME280;56232;53.384;-2.732;2023-08-30T11:54:18;100444.05;;;23.65;28.28
69219;BME280;56232;53.384;-2.732;2023-08-30T11:56:43;100446.69;;;23.75;28.30
69219;BME280;56232;53.384;-2.732;2023-08-30T11:59:17;100449.15;;;23.04;28.33
69219;BME280;56232;53.384;-2.732;2023-08-30T12:01:34;100443.80;;;22.98;28.54
69219;BME280;56232;53.384;-2.732;2023-08-30T12:04:09;100439.63;;;23.14;28.26
69219;BME280;56232;53.384;-2.732;2023-08-30T12:06:25;100437.43;;;23.54;28.25
69219;BME280;56232;53.384;-2.732;2023-08-30T12:08:57;100438.33;;;23.71;28.84
69219;BME280;56232;53.384;-2.732;2023-08-30T12:11:18;100435.65;;;23.65;29.00
69219;BME280;56232;53.384;-2.732;2023-08-30T12:13:42;100438.58;;;24.36;28.49
69219;BME280;56232;53.384;-2.732;2023-08-30T12:16:07;100434.74;;;24.86;27.88
69219;BME280;56232;53.384;-2.732;2023-08-30T12:18:33;100433.40;;;25.47;27.61
69219;BME280;56232;53.384;-2.732;2023-08-30T12:21:00;100430.04;;;24.99;27.99
69219;BME280;56232;53.384;-2.732;2023-08-30T12:23:25;100435.48;;;24.04;28.31
69219;BME280;56232;53.384;-2.732;2023-08-30T12:25:58;100438.66;;;23.89;28.89
69219;BME280;56232;53.384;-2.732;2023-08-30T12:28:15;100438.31;;;24.49;29.11
69219;BME280;56232;53.384;-2.732;2023-08-30T12:30:41;100441.93;;;23.76;29.61
69219;BME280;56232;53.384;-2.732;2023-08-30T12:33:06;100440.94;;;24.69;29.55